sensor_id;sensor_type;location;lat;lon;timestamp;temperature;humidity
7296;DHT22;40758;54.038;11.684;2022-07-17T00:01:13;13.60;99.90
7296;DHT22;40758;54.038;11.684;2022-07-17T00:03:43;13.60;99.90
7296;DHT22;40758;54.038;11.684;2022-07-17T00:06:14;13.60;99.90
7296;DHT22;40758;54.038;11.684;2022-07-17T00:08:44;13.60;99.90
7296;DHT22;40758;54.038;11.684;2022-07-17T00:11:13;13.70;99.90
7296;DHT22;40758;54.038;11.684;2022-07-17T00:13:42;13.80;99.90
7296;DHT22;40758;54.038;11.684;2022-07-17T00:16:12;13.80;99.90
7296;DHT22;40758;54.038;11.684;2022-07-17T00:18:43;13.80;99.90
7296;DHT22;40758;54.038;11.684;2022-07-17T00:21:14;13.90;99.90
7296;DHT22;40758;54.038;11.684;2022-07-17T00:23:43;13.80;99.90
7296;DHT22;40758;54.038;11.684;2022-07-17T00:26:12;13.80;99.90
7296;DHT22;40758;54.038;11.684;2022-07-17T00:28:41;13.70;99.90
7296;DHT22;40758;54.038;11.684;2022-07-17T00:31:10;13.70;99.90
7296;DHT22;40758;54.038;11.684;2022-07-17T00:33:39;13.60;99.90
7296;DHT22;40758;54.038;11.684;2022-07-17T00:36:08;13.50;99.90
7296;DHT22;40758;54.038;11.684;2022-07-17T00:38:39;13.50;99.90
7296;DHT22;40758;54.038;11.684;2022-07-17T00:41:08;13.40;99.90
7296;DHT22;40758;54.038;11.684;2022-07-17T00:43:37;13.30;99.90
7296;DHT22;40758;54.038;11.684;2022-07-17T00:46:06;13.40;99.90
7296;DHT22;40758;54.038;11.684;2022-07-17T00:48:35;13.30;99.90
7296;DHT22;40758;54.038;11.684;2022-07-17T00:51:04;13.30;99.90
7296;DHT22;40758;54.038;11.684;2022-07-17T00:53:35;13.20;99.90
7296;DHT22;40758;54.038;11.684;2022-07-17T00:56:07;13.20;99.90
7296;DHT22;40758;54.038;11.684;2022-07-17T00:58:36;13.20;99.90
7296;DHT22;40758;54.038;11.684;2022-07-17T01:01:07;13.30;99.90
7296;DHT22;40758;54.038;11.684;2022-07-17T01:03:36;13.40;99.90
7296;DHT22;40758;54.038;11.684;2022-07-17T01:06:06;13.40;99.90
7296;DHT22;40758;54.038;11.684;2022-07-17T01:08:36;13.40;99.90
7296;DHT22;40758;54.038;11.684;2022-07-17T01:11:09;13.30;99.90
7296;DHT22;40758;54.038;11.684;2022-07-17T01:13:39;13.20;99.90
7296;DHT22;40758;54.038;11.684;2022-07-17T01:16:08;13.20;99.90
7296;DHT22;40758;54.038;11.684;2022-07-17T01:18:37;13.20;99.90
7296;DHT22;40758;54.038;11.684;2022-07-17T01:21:08;13.20;99.90
7296;DHT22;40758;54.038;11.684;2022-07-17T01:23:37;13.40;99.90
7296;DHT22;40758;54.038;11.684;2022-07-17T01:26:06;13.50;99.90
7296;DHT22;40758;54.038;11.684;2022-07-17T01:28:35;13.60;99.90
7296;DHT22;40758;54.038;11.684;2022-07-17T01:31:04;13.70;99.90
7296;DHT22;40758;54.038;11.684;2022-07-17T01:33:34;13.80;99.90
7296;DHT22;40758;54.038;11.684;2022-07-17T01:36:04;13.80;99.90
7296;DHT22;40758;54.038;11.684;2022-07-17T01:38:35;13.80;99.90
7296;DHT22;40758;54.038;11.684;2022-07-17T01:41:04;13.80;99.90
7296;DHT22;40758;54.038;11.684;2022-07-17T01:43:33;13.80;99.90
7296;DHT22;40758;54.038;11.684;2022-07-17T01:46:02;13.80;99.90
7296;DHT22;40758;54.038;11.684;2022-07-17T01:48:31;13.90;99.90
7296;DHT22;40758;54.038;11.684;2022-07-17T01:51:00;13.90;99.90
7296;DHT22;40758;54.038;11.684;2022-07-17T01:53:31;13.90;99.90
7296;DHT22;40758;54.038;11.684;2022-07-17T01:56:02;13.80;99.90
7296;DHT22;40758;54.038;11.684;2022-07-17T01:58:32;13.80;99.90
7296;DHT22;40758;54.038;11.684;2022-07-17T02:01:02;13.80;99.90
7296;DHT22;40758;54.038;11.684;2022-07-17T02:03:31;13.80;99.90
7296;DHT22;40758;54.038;11.684;2022-07-17T02:06:00;13.80;99.90
7296;DHT22;40758;54.038;11.684;2022-07-17T02:08:29;13.80;99.90
7296;DHT22;40758;54.038;11.684;2022-07-17T02:10:58;13.80;99.90
7296;DHT22;40758;54.038;11.684;2022-07-17T02:13:29;13.80;99.90
7296;DHT22;40758;54.038;11.684;2022-07-17T02:15:58;13.80;99.90
7296;DHT22;40758;54.038;11.684;2022-07-17T02:18:27;13.80;99.90
7296;DHT22;40758;54.038;11.684;2022-07-17T02:20:56;13.80;99.90
7296;DHT22;40758;54.038;11.684;2022-07-17T02:23:25;13.80;99.90
7296;DHT22;40758;54.038;11.684;2022-07-17T02:25:56;13.80;99.90
7296;DHT22;40758;54.038;11.684;2022-07-17T02:28:25;13.80;99.90
7296;DHT22;40758;54.038;11.684;2022-07-17T02:30:56;13.80;99.90
7296;DHT22;40758;54.038;11.684;2022-07-17T02:33:25;13.80;99.90
7296;DHT22;40758;54.038;11.684;2022-07-17T02:35:54;13.80;99.90
7296;DHT22;40758;54.038;11.684;2022-07-17T02:38:23;13.80;99.90
7296;DHT22;40758;54.038;11.684;2022-07-17T02:40:52;13.70;99.90
7296;DHT22;40758;54.038;11.684;2022-07-17T02:43:21;13.70;99.90
7296;DHT22;40758;54.038;11.684;2022-07-17T02:45:50;13.60;99.90
7296;DHT22;40758;54.038;11.684;2022-07-17T02:48:20;13.50;99.90
7296;DHT22;40758;54.038;11.684;2022-07-17T02:50:49;13.40;99.90
7296;DHT22;40758;54.038;11.684;2022-07-17T02:53:18;13.50;99.90
7296;DHT22;40758;54.038;11.684;2022-07-17T02:55:48;13.40;99.90
7296;DHT22;40758;54.038;11.684;2022-07-17T02:58:17;13.50;99.90
7296;DHT22;40758;54.038;11.684;2022-07-17T03:00:46;13.50;99.90
7296;DHT22;40758;54.038;11.684;2022-07-17T03:03:15;13.50;99.90
7296;DHT22;40758;54.038;11.684;2022-07-17T03:05:46;13.60;99.90
7296;DHT22;40758;54.038;11.684;2022-07-17T03:08:16;13.60;99.90
7296;DHT22;40758;54.038;11.684;2022-07-17T03:10:44;13.70;99.90
7296;DHT22;40758;54.038;11.684;2022-07-17T03:13:18;13.80;99.90
7296;DHT22;40758;54.038;11.684;2022-07-17T03:15:47;13.80;99.90
7296;DHT22;40758;54.038;11.684;2022-07-17T03:18:16;13.80;99.90
7296;DHT22;40758;54.038;11.684;2022-07-17T03:20:47;13.90;99.90
7296;DHT22;40758;54.038;11.684;2022-07-17T03:23:16;13.90;99.90
7296;DHT22;40758;54.038;11.684;2022-07-17T03:25:48;13.90;99.90
7296;DHT22;40758;54.038;11.684;2022-07-17T03:28:16;13.90;99.90
7296;DHT22;40758;54.038;11.684;2022-07-17T03:30:46;13.90;99.90
7296;DHT22;40758;54.038;11.684;2022-07-17T03:33:15;14.00;99.90
7296;DHT22;40758;54.038;11.684;2022-07-17T03:35:43;14.00;99.90
7296;DHT22;40758;54.038;11.684;2022-07-17T03:38:14;14.00;99.90
7296;DHT22;40758;54.038;11.684;2022-07-17T03:40:43;14.00;99.90
7296;DHT22;40758;54.038;11.684;2022-07-17T03:43:12;14.00;99.90
7296;DHT22;40758;54.038;11.684;2022-07-17T03:45:46;14.00;99.90
7296;DHT22;40758;54.038;11.684;2022-07-17T03:48:15;14.00;99.90
7296;DHT22;40758;54.038;11.684;2022-07-17T03:50:44;14.10;99.90
7296;DHT22;40758;54.038;11.684;2022-07-17T03:53:15;14.10;99.90
7296;DHT22;40758;54.038;11.684;2022-07-17T03:55:44;14.10;99.90
7296;DHT22;40758;54.038;11.684;2022-07-17T03:58:13;14.10;99.90
7296;DHT22;40758;54.038;11.684;2022-07-17T04:00:43;14.10;99.90
7296;DHT22;40758;54.038;11.684;2022-07-17T04:03:12;14.10;99.90
7296;DHT22;40758;54.038;11.684;2022-07-17T04:05:43;14.10;99.90
7296;DHT22;40758;54.038;11.684;2022-07-17T04:08:14;14.10;99.90
7296;DHT22;40758;54.038;11.684;2022-07-17T04:10:43;14.10;99.90
7296;DHT22;40758;54.038;11.684;2022-07-17T04:13:12;14.10;99.90
7296;DHT22;40758;54.038;11.684;2022-07-17T04:15:45;14.10;99.90
7296;DHT22;40758;54.038;11.684;2022-07-17T04:18:25;14.10;99.90
7296;DHT22;40758;54.038;11.684;2022-07-17T04:20:58;14.20;99.90
7296;DHT22;40758;54.038;11.684;2022-07-17T04:23:29;14.30;99.90
7296;DHT22;40758;54.038;11.684;2022-07-17T04:26:00;14.30;99.90
7296;DHT22;40758;54.038;11.684;2022-07-17T04:28:37;14.40;99.90
7296;DHT22;40758;54.038;11.684;2022-07-17T04:31:07;14.40;99.90
7296;DHT22;40758;54.038;11.684;2022-07-17T04:33:36;14.40;99.90
7296;DHT22;40758;54.038;11.684;2022-07-17T04:36:05;14.40;99.90
7296;DHT22;40758;54.038;11.684;2022-07-17T04:38:36;14.50;99.90
7296;DHT22;40758;54.038;11.684;2022-07-17T04:41:08;14.60;99.90
7296;DHT22;40758;54.038;11.684;2022-07-17T04:43:37;14.60;99.90
7296;DHT22;40758;54.038;11.684;2022-07-17T04:46:06;14.60;99.90
7296;DHT22;40758;54.038;11.684;2022-07-17T04:48:35;14.60;99.90
7296;DHT22;40758;54.038;11.684;2022-07-17T04:51:04;14.60;99.90
7296;DHT22;40758;54.038;11.684;2022-07-17T04:53:34;14.60;99.90
7296;DHT22;40758;54.038;11.684;2022-07-17T04:56:04;14.70;99.90
7296;DHT22;40758;54.038;11.684;2022-07-17T04:58:34;14.90;99.90
7296;DHT22;40758;54.038;11.684;2022-07-17T05:01:04;14.90;99.90
7296;DHT22;40758;54.038;11.684;2022-07-17T05:03:33;14.90;99.90
7296;DHT22;40758;54.038;11.684;2022-07-17T05:06:06;14.90;99.90
7296;DHT22;40758;54.038;11.684;2022-07-17T05:08:40;14.90;99.90
7296;DHT22;40758;54.038;11.684;2022-07-17T05:11:09;15.00;99.90
7296;DHT22;40758;54.038;11.684;2022-07-17T05:13:37;15.20;99.90
7296;DHT22;40758;54.038;11.684;2022-07-17T05:16:07;15.30;99.90
7296;DHT22;40758;54.038;11.684;2022-07-17T05:18:36;15.30;99.90
7296;DHT22;40758;54.038;11.684;2022-07-17T05:21:05;15.30;99.90
7296;DHT22;40758;54.038;11.684;2022-07-17T05:23:34;15.40;99.90
7296;DHT22;40758;54.038;11.684;2022-07-17T05:26:05;15.40;99.90
7296;DHT22;40758;54.038;11.684;2022-07-17T05:28:35;15.50;99.90
7296;DHT22;40758;54.038;11.684;2022-07-17T05:31:05;15.60;99.90
7296;DHT22;40758;54.038;11.684;2022-07-17T05:33:35;15.70;99.90
7296;DHT22;40758;54.038;11.684;2022-07-17T05:36:05;15.70;99.90
7296;DHT22;40758;54.038;11.684;2022-07-17T05:38:34;15.70;99.90
7296;DHT22;40758;54.038;11.684;2022-07-17T05:41:06;15.60;99.90
7296;DHT22;40758;54.038;11.684;2022-07-17T05:43:35;15.50;99.90
7296;DHT22;40758;54.038;11.684;2022-07-17T05:46:04;15.30;99.90
7296;DHT22;40758;54.038;11.684;2022-07-17T05:48:34;15.30;99.90
7296;DHT22;40758;54.038;11.684;2022-07-17T05:51:03;15.30;99.90
7296;DHT22;40758;54.038;11.684;2022-07-17T05:53:38;15.30;99.90
7296;DHT22;40758;54.038;11.684;2022-07-17T05:56:09;15.20;99.90
7296;DHT22;40758;54.038;11.684;2022-07-17T05:58:38;15.10;99.90
7296;DHT22;40758;54.038;11.684;2022-07-17T06:01:07;15.10;99.90
7296;DHT22;40758;54.038;11.684;2022-07-17T06:03:38;15.20;99.90
7296;DHT22;40758;54.038;11.684;2022-07-17T06:06:07;15.20;99.90
7296;DHT22;40758;54.038;11.684;2022-07-17T06:08:36;15.30;99.90
7296;DHT22;40758;54.038;11.684;2022-07-17T06:11:08;15.20;99.90
7296;DHT22;40758;54.038;11.684;2022-07-17T06:13:36;15.20;99.90
7296;DHT22;40758;54.038;11.684;2022-07-17T06:16:10;15.30;99.90
7296;DHT22;40758;54.038;11.684;2022-07-17T06:18:39;15.30;99.90
7296;DHT22;40758;54.038;11.684;2022-07-17T06:21:09;15.40;99.90
7296;DHT22;40758;54.038;11.684;2022-07-17T06:23:38;15.50;99.90
7296;DHT22;40758;54.038;11.684;2022-07-17T06:26:08;15.60;99.90
7296;DHT22;40758;54.038;11.684;2022-07-17T06:28:40;15.60;99.90
7296;DHT22;40758;54.038;11.684;2022-07-17T06:31:09;15.60;99.90
7296;DHT22;40758;54.038;11.684;2022-07-17T06:33:41;15.40;99.90
7296;DHT22;40758;54.038;11.684;2022-07-17T06:36:09;15.40;99.90
7296;DHT22;40758;54.038;11.684;2022-07-17T06:38:38;15.40;99.90
7296;DHT22;40758;54.038;11.684;2022-07-17T06:41:11;15.50;99.90
7296;DHT22;40758;54.038;11.684;2022-07-17T06:43:40;15.70;99.90
7296;DHT22;40758;54.038;11.684;2022-07-17T06:46:09;16.00;99.90
7296;DHT22;40758;54.038;11.684;2022-07-17T06:48:38;16.40;99.90
7296;DHT22;40758;54.038;11.684;2022-07-17T06:51:07;16.70;99.90
7296;DHT22;40758;54.038;11.684;2022-07-17T06:53:37;17.10;99.90
7296;DHT22;40758;54.038;11.684;2022-07-17T06:56:06;17.20;99.90
7296;DHT22;40758;54.038;11.684;2022-07-17T06:58:36;17.40;99.90
7296;DHT22;40758;54.038;11.684;2022-07-17T07:01:06;17.80;99.90
7296;DHT22;40758;54.038;11.684;2022-07-17T07:03:35;17.80;99.90
7296;DHT22;40758;54.038;11.684;2022-07-17T07:06:08;18.30;99.90
7296;DHT22;40758;54.038;11.684;2022-07-17T07:08:40;18.30;99.90
7296;DHT22;40758;54.038;11.684;2022-07-17T07:11:12;18.00;99.90
7296;DHT22;40758;54.038;11.684;2022-07-17T07:13:43;17.70;99.90
7296;DHT22;40758;54.038;11.684;2022-07-17T07:16:12;17.50;99.90
7296;DHT22;40758;54.038;11.684;2022-07-17T07:18:41;17.10;99.90
7296;DHT22;40758;54.038;11.684;2022-07-17T07:21:10;16.90;99.90
7296;DHT22;40758;54.038;11.684;2022-07-17T07:23:40;16.70;99.90
7296;DHT22;40758;54.038;11.684;2022-07-17T07:26:09;16.60;99.90
7296;DHT22;40758;54.038;11.684;2022-07-17T07:28:37;16.60;99.90
7296;DHT22;40758;54.038;11.684;2022-07-17T07:31:08;16.30;99.90
7296;DHT22;40758;54.038;11.684;2022-07-17T07:33:38;16.30;99.90
7296;DHT22;40758;54.038;11.684;2022-07-17T07:36:08;16.40;99.90
7296;DHT22;40758;54.038;11.684;2022-07-17T07:38:38;16.40;99.90
7296;DHT22;40758;54.038;11.684;2022-07-17T07:41:07;16.50;99.90
7296;DHT22;40758;54.038;11.684;2022-07-17T07:43:39;16.70;99.90
7296;DHT22;40758;54.038;11.684;2022-07-17T07:46:09;16.70;99.90
7296;DHT22;40758;54.038;11.684;2022-07-17T07:48:42;17.00;99.90
7296;DHT22;40758;54.038;11.684;2022-07-17T07:51:11;17.20;99.90
7296;DHT22;40758;54.038;11.684;2022-07-17T07:53:40;17.20;99.90
7296;DHT22;40758;54.038;11.684;2022-07-17T07:56:09;17.30;99.90
7296;DHT22;40758;54.038;11.684;2022-07-17T07:58:39;17.60;99.90
7296;DHT22;40758;54.038;11.684;2022-07-17T08:01:10;18.40;99.90
7296;DHT22;40758;54.038;11.684;2022-07-17T08:03:41;18.50;99.90
7296;DHT22;40758;54.038;11.684;2022-07-17T08:06:11;19.00;99.90
7296;DHT22;40758;54.038;11.684;2022-07-17T08:08:42;19.20;99.90
7296;DHT22;40758;54.038;11.684;2022-07-17T08:11:11;19.60;99.90
7296;DHT22;40758;54.038;11.684;2022-07-17T08:13:42;20.60;99.90
7296;DHT22;40758;54.038;11.684;2022-07-17T08:16:13;20.80;99.90
7296;DHT22;40758;54.038;11.684;2022-07-17T08:18:44;20.40;99.90
7296;DHT22;40758;54.038;11.684;2022-07-17T08:21:13;19.80;99.90
7296;DHT22;40758;54.038;11.684;2022-07-17T08:23:42;20.30;99.90
7296;DHT22;40758;54.038;11.684;2022-07-17T08:26:12;21.10;99.90
7296;DHT22;40758;54.038;11.684;2022-07-17T08:28:41;21.60;99.90
7296;DHT22;40758;54.038;11.684;2022-07-17T08:31:10;21.40;99.90
7296;DHT22;40758;54.038;11.684;2022-07-17T08:33:41;20.90;99.90
7296;DHT22;40758;54.038;11.684;2022-07-17T08:36:10;20.70;99.90
7296;DHT22;40758;54.038;11.684;2022-07-17T08:38:39;20.40;99.90
7296;DHT22;40758;54.038;11.684;2022-07-17T08:41:11;20.40;99.90
7296;DHT22;40758;54.038;11.684;2022-07-17T08:43:44;21.60;99.90
7296;DHT22;40758;54.038;11.684;2022-07-17T08:46:16;21.70;99.90
7296;DHT22;40758;54.038;11.684;2022-07-17T08:48:49;20.70;99.90
7296;DHT22;40758;54.038;11.684;2022-07-17T08:51:21;20.00;99.90
7296;DHT22;40758;54.038;11.684;2022-07-17T08:53:55;21.20;99.90
7296;DHT22;40758;54.038;11.684;2022-07-17T08:56:25;22.80;99.90
7296;DHT22;40758;54.038;11.684;2022-07-17T08:58:58;22.80;99.90
7296;DHT22;40758;54.038;11.684;2022-07-17T09:01:27;22.30;99.90
7296;DHT22;40758;54.038;11.684;2022-07-17T09:04:00;21.90;99.90
7296;DHT22;40758;54.038;11.684;2022-07-17T09:06:34;20.70;99.90
7296;DHT22;40758;54.038;11.684;2022-07-17T09:09:06;21.20;99.90
7296;DHT22;40758;54.038;11.684;2022-07-17T09:11:44;21.50;99.90
7296;DHT22;40758;54.038;11.684;2022-07-17T09:14:14;21.80;99.90
7296;DHT22;40758;54.038;11.684;2022-07-17T09:16:49;22.60;99.90
7296;DHT22;40758;54.038;11.684;2022-07-17T09:19:29;22.70;99.90
7296;DHT22;40758;54.038;11.684;2022-07-17T09:22:11;23.10;99.90
7296;DHT22;40758;54.038;11.684;2022-07-17T09:24:44;23.50;99.90
7296;DHT22;40758;54.038;11.684;2022-07-17T09:27:29;24.10;99.90
7296;DHT22;40758;54.038;11.684;2022-07-17T09:30:01;23.90;99.90
7296;DHT22;40758;54.038;11.684;2022-07-17T09:32:36;24.00;99.90
7296;DHT22;40758;54.038;11.684;2022-07-17T09:35:11;23.20;99.90
7296;DHT22;40758;54.038;11.684;2022-07-17T09:37:40;22.10;99.90
7296;DHT22;40758;54.038;11.684;2022-07-17T09:40:14;22.30;99.90
7296;DHT22;40758;54.038;11.684;2022-07-17T09:43:01;23.30;99.90
7296;DHT22;40758;54.038;11.684;2022-07-17T09:45:31;23.90;99.90
7296;DHT22;40758;54.038;11.684;2022-07-17T09:48:02;23.20;99.90
7296;DHT22;40758;54.038;11.684;2022-07-17T09:50:33;23.20;99.90
7296;DHT22;40758;54.038;11.684;2022-07-17T09:53:05;22.90;99.90
7296;DHT22;40758;54.038;11.684;2022-07-17T09:55:40;22.80;99.90
7296;DHT22;40758;54.038;11.684;2022-07-17T09:58:15;21.90;99.90
7296;DHT22;40758;54.038;11.684;2022-07-17T10:00:51;22.10;99.90
7296;DHT22;40758;54.038;11.684;2022-07-17T10:03:20;22.60;99.90
7296;DHT22;40758;54.038;11.684;2022-07-17T10:05:51;22.60;99.90
7296;DHT22;40758;54.038;11.684;2022-07-17T10:08:20;22.70;99.90
7296;DHT22;40758;54.038;11.684;2022-07-17T10:10:50;23.00;99.90
7296;DHT22;40758;54.038;11.684;2022-07-17T10:13:24;23.40;99.90
7296;DHT22;40758;54.038;11.684;2022-07-17T10:15:54;22.70;99.90
7296;DHT22;40758;54.038;11.684;2022-07-17T10:18:37;22.00;99.90
7296;DHT22;40758;54.038;11.684;2022-07-17T10:21:14;22.10;99.90
7296;DHT22;40758;54.038;11.684;2022-07-17T10:23:48;22.30;99.90
7296;DHT22;40758;54.038;11.684;2022-07-17T10:26:38;22.80;99.90
7296;DHT22;40758;54.038;11.684;2022-07-17T10:29:33;22.50;99.90
7296;DHT22;40758;54.038;11.684;2022-07-17T10:32:15;22.30;99.90
7296;DHT22;40758;54.038;11.684;2022-07-17T10:34:47;22.70;99.90
7296;DHT22;40758;54.038;11.684;2022-07-17T10:37:25;22.90;99.90
7296;DHT22;40758;54.038;11.684;2022-07-17T10:40:05;22.50;99.90
7296;DHT22;40758;54.038;11.684;2022-07-17T10:42:43;22.50;99.90
7296;DHT22;40758;54.038;11.684;2022-07-17T10:45:17;22.20;99.90
7296;DHT22;40758;54.038;11.684;2022-07-17T10:47:50;21.90;99.90
7296;DHT22;40758;54.038;11.684;2022-07-17T10:50:23;21.70;99.90
7296;DHT22;40758;54.038;11.684;2022-07-17T10:53:07;22.10;99.90
7296;DHT22;40758;54.038;11.684;2022-07-17T10:55:52;22.20;99.90
7296;DHT22;40758;54.038;11.684;2022-07-17T10:58:25;21.90;99.90
7296;DHT22;40758;54.038;11.684;2022-07-17T11:01:02;21.60;99.90
7296;DHT22;40758;54.038;11.684;2022-07-17T11:03:37;22.00;99.90
7296;DHT22;40758;54.038;11.684;2022-07-17T11:06:11;22.50;99.90
7296;DHT22;40758;54.038;11.684;2022-07-17T11:08:49;22.60;99.90
7296;DHT22;40758;54.038;11.684;2022-07-17T11:11:21;22.50;99.90
7296;DHT22;40758;54.038;11.684;2022-07-17T11:14:10;22.80;99.90
7296;DHT22;40758;54.038;11.684;2022-07-17T11:16:45;22.70;99.90
7296;DHT22;40758;54.038;11.684;2022-07-17T11:19:22;22.60;99.90
7296;DHT22;40758;54.038;11.684;2022-07-17T11:21:54;22.40;99.90
7296;DHT22;40758;54.038;11.684;2022-07-17T11:24:35;22.30;99.90
7296;DHT22;40758;54.038;11.684;2022-07-17T11:27:10;22.30;99.90
7296;DHT22;40758;54.038;11.684;2022-07-17T11:29:49;22.30;99.90
7296;DHT22;40758;54.038;11.684;2022-07-17T11:32:20;22.30;99.90
7296;DHT22;40758;54.038;11.684;2022-07-17T11:34:50;22.30;99.90
7296;DHT22;40758;54.038;11.684;2022-07-17T11:37:19;22.10;99.90
7296;DHT22;40758;54.038;11.684;2022-07-17T11:39:50;21.90;99.90
7296;DHT22;40758;54.038;11.684;2022-07-17T11:42:21;21.90;99.90
7296;DHT22;40758;54.038;11.684;2022-07-17T11:44:54;22.40;99.90
7296;DHT22;40758;54.038;11.684;2022-07-17T11:47:27;22.80;99.90
7296;DHT22;40758;54.038;11.684;2022-07-17T11:50:05;23.20;99.90
7296;DHT22;40758;54.038;11.684;2022-07-17T11:52:42;23.30;99.90
7296;DHT22;40758;54.038;11.684;2022-07-17T11:55:17;23.60;99.90
7296;DHT22;40758;54.038;11.684;2022-07-17T11:57:47;24.20;99.90
7296;DHT22;40758;54.038;11.684;2022-07-17T12:00:20;24.40;99.90
7296;DHT22;40758;54.038;11.684;2022-07-17T12:03:00;24.30;99.90
7296;DHT22;40758;54.038;11.684;2022-07-17T12:05:32;23.50;99.90
7296;DHT22;40758;54.038;11.684;2022-07-17T12:08:05;22.80;99.90
7296;DHT22;40758;54.038;11.684;2022-07-17T12:10:38;22.90;99.90
7296;DHT22;40758;54.038;11.684;2022-07-17T12:13:10;23.20;99.90
7296;DHT22;40758;54.038;11.684;2022-07-17T12:15:42;23.40;99.90
7296;DHT22;40758;54.038;11.684;2022-07-17T12:18:21;23.80;99.90
7296;DHT22;40758;54.038;11.684;2022-07-17T12:20:53;23.60;99.90
7296;DHT22;40758;54.038;11.684;2022-07-17T12:23:28;22.90;99.90
7296;DHT22;40758;54.038;11.684;2022-07-17T12:26:07;22.80;99.90
7296;DHT22;40758;54.038;11.684;2022-07-17T12:28:38;22.80;99.90
7296;DHT22;40758;54.038;11.684;2022-07-17T12:31:08;22.60;99.90
7296;DHT22;40758;54.038;11.684;2022-07-17T12:33:39;22.50;99.90
7296;DHT22;40758;54.038;11.684;2022-07-17T12:36:09;22.80;99.90
7296;DHT22;40758;54.038;11.684;2022-07-17T12:38:38;23.10;99.90
7296;DHT22;40758;54.038;11.684;2022-07-17T12:41:09;23.00;99.90
7296;DHT22;40758;54.038;11.684;2022-07-17T12:43:38;23.40;99.90
7296;DHT22;40758;54.038;11.684;2022-07-17T12:46:11;23.80;99.90
7296;DHT22;40758;54.038;11.684;2022-07-17T12:48:44;24.00;99.90
7296;DHT22;40758;54.038;11.684;2022-07-17T12:51:14;24.20;99.90
7296;DHT22;40758;54.038;11.684;2022-07-17T12:53:47;24.10;99.90
7296;DHT22;40758;54.038;11.684;2022-07-17T12:56:18;24.50;99.90
7296;DHT22;40758;54.038;11.684;2022-07-17T12:58:48;24.30;99.90
7296;DHT22;40758;54.038;11.684;2022-07-17T13:01:17;24.10;99.90
7296;DHT22;40758;54.038;11.684;2022-07-17T13:03:47;23.90;99.90
7296;DHT22;40758;54.038;11.684;2022-07-17T13:06:16;24.20;99.90
7296;DHT22;40758;54.038;11.684;2022-07-17T13:08:45;24.30;99.90
7296;DHT22;40758;54.038;11.684;2022-07-17T13:11:14;24.10;99.90
7296;DHT22;40758;54.038;11.684;2022-07-17T13:13:45;24.00;99.90
7296;DHT22;40758;54.038;11.684;2022-07-17T13:16:20;23.90;99.90
7296;DHT22;40758;54.038;11.684;2022-07-17T13:18:50;24.00;99.90
7296;DHT22;40758;54.038;11.684;2022-07-17T13:21:19;23.60;99.90
7296;DHT22;40758;54.038;11.684;2022-07-17T13:23:51;23.50;99.90
7296;DHT22;40758;54.038;11.684;2022-07-17T13:26:21;23.50;99.90
7296;DHT22;40758;54.038;11.684;2022-07-17T13:28:52;23.60;99.90
7296;DHT22;40758;54.038;11.684;2022-07-17T13:31:22;23.50;99.90
7296;DHT22;40758;54.038;11.684;2022-07-17T13:33:52;23.40;99.90
7296;DHT22;40758;54.038;11.684;2022-07-17T13:36:22;23.90;99.90
7296;DHT22;40758;54.038;11.684;2022-07-17T13:38:51;24.10;99.90
7296;DHT22;40758;54.038;11.684;2022-07-17T13:41:20;24.00;99.90
7296;DHT22;40758;54.038;11.684;2022-07-17T13:43:52;24.00;99.90
7296;DHT22;40758;54.038;11.684;2022-07-17T13:46:22;24.10;99.90
7296;DHT22;40758;54.038;11.684;2022-07-17T13:48:51;24.50;99.90
7296;DHT22;40758;54.038;11.684;2022-07-17T13:51:20;25.40;99.90
7296;DHT22;40758;54.038;11.684;2022-07-17T13:53:51;25.80;99.90
7296;DHT22;40758;54.038;11.684;2022-07-17T13:56:23;26.10;99.90
7296;DHT22;40758;54.038;11.684;2022-07-17T13:58:54;26.40;99.90
7296;DHT22;40758;54.038;11.684;2022-07-17T14:01:23;26.60;99.90
7296;DHT22;40758;54.038;11.684;2022-07-17T14:03:53;26.40;99.90
7296;DHT22;40758;54.038;11.684;2022-07-17T14:06:24;26.60;99.90
7296;DHT22;40758;54.038;11.684;2022-07-17T14:08:53;26.90;99.90
7296;DHT22;40758;54.038;11.684;2022-07-17T14:11:24;27.30;99.90
7296;DHT22;40758;54.038;11.684;2022-07-17T14:13:56;27.20;99.90
7296;DHT22;40758;54.038;11.684;2022-07-17T14:16:25;27.40;99.90
7296;DHT22;40758;54.038;11.684;2022-07-17T14:18:55;27.60;99.90
7296;DHT22;40758;54.038;11.684;2022-07-17T14:21:33;27.70;99.90
7296;DHT22;40758;54.038;11.684;2022-07-17T14:24:04;27.90;99.90
7296;DHT22;40758;54.038;11.684;2022-07-17T14:26:40;28.10;99.90
7296;DHT22;40758;54.038;11.684;2022-07-17T14:29:16;28.30;99.90
7296;DHT22;40758;54.038;11.684;2022-07-17T14:31:45;28.00;99.90
7296;DHT22;40758;54.038;11.684;2022-07-17T14:34:19;28.20;99.90
7296;DHT22;40758;54.038;11.684;2022-07-17T14:36:51;28.40;99.90
7296;DHT22;40758;54.038;11.684;2022-07-17T14:39:20;28.70;99.90
7296;DHT22;40758;54.038;11.684;2022-07-17T14:41:50;28.70;99.90
7296;DHT22;40758;54.038;11.684;2022-07-17T14:44:20;28.70;99.90
7296;DHT22;40758;54.038;11.684;2022-07-17T14:46:49;28.10;99.90
7296;DHT22;40758;54.038;11.684;2022-07-17T14:49:22;28.30;99.90
7296;DHT22;40758;54.038;11.684;2022-07-17T14:51:53;28.40;99.90
7296;DHT22;40758;54.038;11.684;2022-07-17T14:54:23;28.10;99.90
7296;DHT22;40758;54.038;11.684;2022-07-17T14:57:00;27.90;99.90
7296;DHT22;40758;54.038;11.684;2022-07-17T14:59:31;28.10;99.90
7296;DHT22;40758;54.038;11.684;2022-07-17T15:02:01;28.20;99.90
7296;DHT22;40758;54.038;11.684;2022-07-17T15:04:30;28.10;99.90
7296;DHT22;40758;54.038;11.684;2022-07-17T15:07:04;28.40;99.90
7296;DHT22;40758;54.038;11.684;2022-07-17T15:09:34;29.00;99.90
7296;DHT22;40758;54.038;11.684;2022-07-17T15:12:04;29.50;99.90
7296;DHT22;40758;54.038;11.684;2022-07-17T15:14:38;29.70;99.90
7296;DHT22;40758;54.038;11.684;2022-07-17T15:17:07;29.90;99.90
7296;DHT22;40758;54.038;11.684;2022-07-17T15:19:36;29.90;99.90
7296;DHT22;40758;54.038;11.684;2022-07-17T15:22:07;29.50;99.90
7296;DHT22;40758;54.038;11.684;2022-07-17T15:24:36;29.20;99.90
7296;DHT22;40758;54.038;11.684;2022-07-17T15:27:05;28.80;99.90
7296;DHT22;40758;54.038;11.684;2022-07-17T15:29:35;28.40;99.90
7296;DHT22;40758;54.038;11.684;2022-07-17T15:32:06;28.30;99.90
7296;DHT22;40758;54.038;11.684;2022-07-17T15:34:36;28.40;99.90
7296;DHT22;40758;54.038;11.684;2022-07-17T15:37:06;28.20;99.90
7296;DHT22;40758;54.038;11.684;2022-07-17T15:39:38;27.80;99.90
7296;DHT22;40758;54.038;11.684;2022-07-17T15:42:08;27.40;99.90
7296;DHT22;40758;54.038;11.684;2022-07-17T15:44:38;27.50;99.90
7296;DHT22;40758;54.038;11.684;2022-07-17T15:47:09;27.70;99.90
7296;DHT22;40758;54.038;11.684;2022-07-17T15:49:39;27.70;99.90
7296;DHT22;40758;54.038;11.684;2022-07-17T15:52:08;27.40;99.90
7296;DHT22;40758;54.038;11.684;2022-07-17T15:54:37;27.00;99.90